^^
Station Historical Data
 
Daily Summary for April 23, 2014 Units:  English    Metric   Both
« Previous Day
Next Day »
Daily Weekly Monthly Yearly Custom
  Current: High: Low: Average:
Temperature: 52.3 °F 52.3 °F 34.7 °F 40.7 °F
Dew Point: 35.6 °F 36.9 °F 30.4 °F 32.5 °F
Humidity: 53% 85% 53% 73%
Wind Speed: 0.0mph 0.0mph 0.0mph 0mph
Wind Gust: 0.0mph 0.0mph - -
WindCalm - - North
Pressure: 30.16 in 30.17 in 30.08 in -
Precipitation: 0.78 in      
Historical Graphs
 
 
Tabular Data for April 23, 2014
Time Temperature Dew Point Pressure Wind Wind Speed Wind Gust Humidity Rainfall Rate (Hourly)
00:09 39.3 °F 31.0 °F 30.08 in Calm     72% 0.68 in
00:19 39.0 °F 31.1 °F 30.08 in Calm     73% 0.00 in
00:29 38.9 °F 31.3 °F 30.08 in Calm     74% 0.00 in
00:39 38.6 °F 31.0 °F 30.08 in Calm     74% 0.00 in
00:49 38.2 °F 31.0 °F 30.09 in Calm     75% 0.00 in
00:59 37.9 °F 31.3 °F 30.09 in Calm     77% 0.00 in
01:09 37.5 °F 30.9 °F 30.09 in Calm     77% 0.00 in
01:19 37.4 °F 31.2 °F 30.09 in Calm     78% 0.00 in
01:29 37.3 °F 31.1 °F 30.09 in Calm     78% 0.00 in
01:39 37.4 °F 31.2 °F 30.09 in Calm     78% 0.00 in
01:49 37.5 °F 31.3 °F 30.09 in Calm     78% 0.00 in
01:59 37.7 °F 31.5 °F 30.10 in Calm     78% 0.00 in
02:09 37.9 °F 31.7 °F 30.09 in Calm     78% 0.00 in
02:19 37.9 °F 31.7 °F 30.09 in Calm     78% 0.00 in
02:29 37.9 °F 31.7 °F 30.09 in Calm     78% 0.00 in
02:39 37.9 °F 31.7 °F 30.09 in Calm     78% 0.00 in
02:49 37.8 °F 31.6 °F 30.10 in Calm     78% 0.00 in
02:59 37.7 °F 31.8 °F 30.10 in Calm     79% 0.00 in
03:09 37.5 °F 31.6 °F 30.10 in Calm     79% 0.00 in
03:19 37.4 °F 31.8 °F 30.11 in Calm     80% 0.00 in
03:29 37.1 °F 31.5 °F 30.11 in Calm     80% 0.00 in
03:39 36.8 °F 31.2 °F 30.11 in Calm     80% 0.00 in
03:49 36.6 °F 31.3 °F 30.11 in Calm     81% 0.00 in
03:59 36.5 °F 31.2 °F 30.11 in Calm     81% 0.00 in
04:09 36.4 °F 31.4 °F 30.12 in Calm     82% 0.00 in
04:19 36.2 °F 31.2 °F 30.12 in Calm     82% 0.00 in
04:29 36.1 °F 31.1 °F 30.12 in Calm     82% 0.00 in
04:39 36.0 °F 31.0 °F 30.12 in Calm     82% 0.00 in
04:49 35.8 °F 30.8 °F 30.12 in Calm     82% 0.00 in
04:59 35.7 °F 31.0 °F 30.12 in Calm     83% 0.00 in
05:09 35.5 °F 30.9 °F 30.12 in Calm     83% 0.00 in
05:19 35.4 °F 30.8 °F 30.13 in Calm     83% 0.00 in
05:29 35.3 °F 30.7 °F 30.13 in Calm     83% 0.00 in
05:39 35.2 °F 30.6 °F 30.13 in Calm     83% 0.00 in
05:49 35.1 °F 30.8 °F 30.14 in Calm     84% 0.00 in
05:59 35.0 °F 30.7 °F 30.14 in Calm     84% 0.00 in
06:09 34.8 °F 30.5 °F 30.14 in Calm     84% 0.00 in
06:19 34.7 °F 30.4 °F 30.15 in Calm     84% 0.00 in
06:29 34.7 °F 30.7 °F 30.15 in Calm     85% 0.00 in
06:39 34.8 °F 30.8 °F 30.15 in Calm     85% 0.00 in
06:49 35.2 °F 31.1 °F 30.16 in Calm     85% 0.00 in
06:59 35.7 °F 31.3 °F 30.16 in Calm     84% 0.00 in
07:09 36.3 °F 31.6 °F 30.16 in Calm     83% 0.00 in
07:19 36.9 °F 31.9 °F 30.16 in Calm     82% 0.00 in
07:29 37.6 °F 32.3 °F 30.16 in Calm     81% 0.00 in
07:39 38.3 °F 32.4 °F 30.16 in Calm     79% 0.00 in
07:49 39.2 °F 32.9 °F 30.16 in Calm     78% 0.00 in
07:59 39.8 °F 32.9 °F 30.16 in Calm     76% 0.00 in
08:09 40.8 °F 32.8 °F 30.17 in Calm     73% 0.00 in
08:19 42.1 °F 33.3 °F 30.17 in Calm     71% 0.00 in
08:29 43.4 °F 33.5 °F 30.17 in Calm     68% 0.00 in
08:39 44.4 °F 33.8 °F 30.16 in Calm     66% 0.00 in
08:49 44.6 °F 33.2 °F 30.17 in Calm     64% 0.00 in
08:59 45.2 °F 33.7 °F 30.17 in Calm     64% 0.00 in
09:09 46.0 °F 33.7 °F 30.17 in Calm     62% 0.00 in
09:19 46.0 °F 34.1 °F 30.17 in Calm     63% 0.00 in
09:29 46.8 °F 34.4 °F 30.17 in Calm     62% 0.00 in
09:39 47.6 °F 33.9 °F 30.17 in Calm     59% 0.00 in
09:49 47.5 °F 34.3 °F 30.16 in Calm     60% 0.00 in
09:59 48.2 °F 34.5 °F 30.16 in Calm     59% 0.00 in
10:09 48.9 °F 35.2 °F 30.17 in Calm     59% 0.00 in
10:19 49.2 °F 35.5 °F 30.17 in Calm     59% 0.00 in
10:29 49.7 °F 35.5 °F 30.17 in Calm     58% 0.00 in
10:39 49.6 °F 35.4 °F 30.17 in Calm     58% 0.00 in
10:49 49.6 °F 35.4 °F 30.16 in Calm     58% 0.00 in
10:59 50.3 °F 35.6 °F 30.17 in Calm     57% 0.00 in
11:09 50.6 °F 35.9 °F 30.16 in Calm     57% 0.00 in
11:19 51.3 °F 36.1 °F 30.16 in Calm     56% 0.00 in
11:29 51.0 °F 36.3 °F 30.16 in Calm     57% 0.00 in
11:39 50.9 °F 35.3 °F 30.17 in Calm     55% 0.00 in
11:49 50.1 °F 35.9 °F 30.17 in Calm     58% 0.01 in
11:59 51.7 °F 36.9 °F 30.17 in Calm     57% 0.00 in
12:09 52.3 °F 35.6 °F 30.16 in Calm     53% 0.00 in
jolietwx - Weather
Compliments of Weather Underground